createdAt,value
2019-04-23T00:00:07.517Z,97379.00
2019-04-23T00:03:08.265Z,97384.00
2019-04-23T00:05:48.132Z,97371.00
2019-04-23T00:08:17.510Z,97366.00
2019-04-23T00:10:49.803Z,97370.00
2019-04-23T00:13:16.933Z,97361.00
2019-04-23T00:16:03.742Z,97365.00
2019-04-23T00:18:37.710Z,97359.00
2019-04-23T00:21:26.673Z,97357.00
2019-04-23T00:24:23.752Z,97354.00
2019-04-23T00:26:37.135Z,97350.00
2019-04-23T00:29:05.385Z,97346.00
2019-04-23T00:31:39.266Z,97342.00
2019-04-23T00:34:04.224Z,97337.00
2019-04-23T00:39:02.511Z,97347.00
2019-04-23T00:41:37.689Z,97343.00
2019-04-23T00:44:09.040Z,97340.00
2019-04-23T00:46:35.213Z,97340.00
2019-04-23T00:49:10.744Z,97339.00
2019-04-23T00:54:14.314Z,97339.00
2019-04-23T00:59:12.586Z,97315.00
2019-04-23T01:04:15.648Z,97316.00
2019-04-23T01:06:47.648Z,97308.00
2019-04-23T01:09:14.104Z,97297.00
2019-04-23T01:11:43.314Z,97306.00
2019-04-23T01:14:27.518Z,97294.00
2019-04-23T01:16:46.005Z,97280.00
2019-04-23T01:19:32.048Z,97291.00
2019-04-23T01:21:39.481Z,97281.00
2019-04-23T01:24:31.494Z,97287.00
2019-04-23T01:27:51.367Z,97289.00
2019-04-23T01:32:36.976Z,97275.00
2019-04-23T01:35:15.432Z,97277.00
2019-04-23T01:37:39.769Z,97278.00
2019-04-23T01:40:13.502Z,97272.00
2019-04-23T01:42:40.572Z,97273.00
2019-04-23T01:45:13.241Z,97273.00
2019-04-23T01:50:13.761Z,97254.00
2019-04-23T01:52:50.617Z,97247.00
2019-04-23T01:55:17.072Z,97243.00
2019-04-23T01:57:47.162Z,97242.00
2019-04-23T02:00:17.199Z,97238.00
2019-04-23T02:02:52.470Z,97230.00
2019-04-23T02:05:24.307Z,97239.00
2019-04-23T02:07:50.993Z,97231.00
2019-04-23T02:10:22.191Z,97235.00
2019-04-23T02:15:21.639Z,97222.00
2019-04-23T02:17:53.302Z,97227.00
2019-04-23T02:20:25.473Z,97226.00
2019-04-23T02:25:45.747Z,97219.00
2019-04-23T02:28:31.582Z,97208.00
2019-04-23T02:35:55.674Z,97215.00
2019-04-23T02:41:29.600Z,97207.00
2019-04-23T02:43:28.166Z,97207.00
2019-04-23T02:48:24.688Z,97194.00
2019-04-23T03:01:14.826Z,97198.00
2019-04-23T03:03:38.945Z,97183.00
2019-04-23T03:08:32.752Z,97170.00
2019-04-23T03:11:08.082Z,97167.00
2019-04-23T03:16:34.800Z,97159.00
2019-04-23T03:19:02.618Z,97158.00
2019-04-23T03:24:36.364Z,97164.00
2019-04-23T03:39:34.526Z,97153.00
2019-04-23T03:42:09.968Z,97160.00
2019-04-23T03:44:29.882Z,97146.00
2019-04-23T03:49:33.333Z,97152.00
2019-04-23T03:52:19.281Z,97140.00
2019-04-23T04:02:33.429Z,97137.00
2019-04-23T04:04:34.893Z,97141.00
2019-04-23T04:09:47.623Z,97139.00
2019-04-23T04:12:14.924Z,97139.00
2019-04-23T04:17:10.355Z,97137.00
2019-04-23T04:19:39.682Z,97137.00
2019-04-23T04:22:20.679Z,97128.00
2019-04-23T04:24:40.369Z,97126.00
2019-04-23T04:29:47.201Z,97131.00
2019-04-23T04:32:09.845Z,97134.00
2019-04-23T04:35:06.871Z,97137.00
2019-04-23T04:39:53.202Z,97130.00
2019-04-23T04:42:34.094Z,97123.00
2019-04-23T04:47:21.483Z,97122.00
2019-04-23T04:50:02.407Z,97123.00
2019-04-23T04:52:33.848Z,97118.00
2019-04-23T04:54:42.300Z,97121.00
2019-04-23T04:57:30.681Z,97123.00
2019-04-23T05:04:57.666Z,97119.00
2019-04-23T05:07:30.375Z,97115.00
2019-04-23T05:12:23.883Z,97118.00
2019-04-23T05:14:56.786Z,97134.00
2019-04-23T05:20:12.550Z,97121.00
2019-04-23T05:22:52.660Z,97118.00
2019-04-23T05:25:12.332Z,97120.00
2019-04-23T05:27:53.735Z,97121.00
2019-04-23T05:30:15.654Z,97117.00
2019-04-23T05:32:44.629Z,97111.00
2019-04-23T05:35:20.745Z,97107.00
2019-04-23T05:37:59.379Z,97091.00
2019-04-23T05:40:26.994Z,97100.00
2019-04-23T05:42:45.725Z,97103.00
2019-04-23T05:45:15.817Z,97106.00
2019-04-23T05:47:56.743Z,97113.00
2019-04-23T05:50:30.230Z,97110.00
2019-04-23T05:52:56.909Z,97111.00
2019-04-23T05:55:25.044Z,97124.00
2019-04-23T05:57:53.712Z,97103.00
2019-04-23T06:00:24.381Z,97113.00
2019-04-23T06:02:58.904Z,97107.00
2019-04-23T06:05:25.043Z,97109.00
2019-04-23T06:07:54.584Z,97114.00
2019-04-23T06:10:30.530Z,97112.00
2019-04-23T06:12:59.611Z,97098.00
2019-04-23T06:15:26.815Z,97101.00
2019-04-23T06:18:01.532Z,97100.00
2019-04-23T06:20:35.025Z,97091.00
2019-04-23T06:23:06.257Z,97109.00
2019-04-23T06:28:06.645Z,97091.00
2019-04-23T06:30:40.728Z,97093.00
2019-04-23T06:33:05.865Z,97089.00
2019-04-23T06:35:41.998Z,97106.00
2019-04-23T06:38:22.025Z,97095.00
2019-04-23T06:40:35.832Z,97088.00
2019-04-23T06:46:03.645Z,97079.00
2019-04-23T06:50:51.094Z,97082.00
2019-04-23T06:53:18.469Z,97076.00
2019-04-23T06:55:49.557Z,97070.00
2019-04-23T06:58:25.455Z,97073.00
2019-04-23T07:03:27.743Z,97069.00
2019-04-23T07:06:20.769Z,97070.00
2019-04-23T07:08:53.916Z,97074.00
2019-04-23T07:11:16.767Z,97071.00
2019-04-23T07:13:46.573Z,97082.00
2019-04-23T07:16:09.628Z,97073.00
2019-04-23T07:18:36.472Z,97071.00
2019-04-23T07:21:15.454Z,97070.00
2019-04-23T07:23:52.624Z,97067.00
2019-04-23T07:26:27.398Z,97054.00
2019-04-23T07:31:20.639Z,97049.00
2019-04-23T07:33:52.836Z,97053.00
2019-04-23T07:36:24.234Z,97055.00
2019-04-23T07:42:09.361Z,97051.00
2019-04-23T07:44:48.447Z,97048.00
2019-04-23T07:47:45.228Z,97052.00
2019-04-23T07:50:23.327Z,97049.00
2019-04-23T07:52:51.484Z,97055.00
2019-04-23T07:55:25.486Z,97051.00
2019-04-23T07:57:52.154Z,97045.00
2019-04-23T08:00:27.589Z,97041.00
2019-04-23T08:02:57.599Z,97054.00
2019-04-23T08:05:25.167Z,97040.00
2019-04-23T08:07:55.505Z,97040.00
2019-04-23T08:10:24.680Z,97041.00
2019-04-23T08:13:00.925Z,97043.00
2019-04-23T08:15:28.222Z,97058.00
2019-04-23T08:18:03.215Z,97032.00
2019-04-23T08:23:01.924Z,97031.00
2019-04-23T08:26:06.072Z,97031.00
2019-04-23T08:28:34.061Z,97040.00
2019-04-23T08:30:56.712Z,97034.00
2019-04-23T08:33:23.364Z,97035.00
2019-04-23T08:35:59.298Z,97026.00
2019-04-23T08:38:31.857Z,97024.00
2019-04-23T08:41:04.204Z,97024.00
2019-04-23T08:43:40.777Z,97036.00
2019-04-23T08:46:22.961Z,97040.00
2019-04-23T08:53:55.448Z,97021.00
2019-04-23T08:56:29.801Z,97017.00
2019-04-23T08:58:48.969Z,97030.00
2019-04-23T09:01:27.456Z,97024.00
2019-04-23T09:03:58.056Z,97025.00
2019-04-23T09:06:24.494Z,97023.00
2019-04-23T09:08:56.553Z,97021.00
2019-04-23T09:13:56.370Z,97021.00
2019-04-23T09:16:35.379Z,97020.00
2019-04-23T09:19:02.692Z,97021.00
2019-04-23T09:21:26.968Z,97002.00
2019-04-23T09:23:56.209Z,97018.00
2019-04-23T09:26:33.178Z,97016.00
2019-04-23T09:29:09.623Z,97034.00
2019-04-23T09:41:15.530Z,97011.00
2019-04-23T09:44:02.801Z,97012.00
2019-04-23T09:49:06.304Z,97009.00
2019-04-23T09:51:34.274Z,97016.00
2019-04-23T09:54:02.976Z,97011.00
2019-04-23T09:56:37.840Z,97011.00
2019-04-23T09:59:09.110Z,97005.00
2019-04-23T10:01:41.055Z,97006.00
2019-04-23T10:03:52.096Z,97008.00
2019-04-23T10:06:18.287Z,97013.00
2019-04-23T10:08:46.527Z,96991.00
2019-04-23T10:11:11.737Z,97005.00
2019-04-23T10:13:42.649Z,96987.00
2019-04-23T10:16:15.591Z,96990.00
2019-04-23T10:18:42.859Z,97004.00
2019-04-23T10:21:13.107Z,96991.00
2019-04-23T10:23:43.291Z,97007.00
2019-04-23T10:26:13.899Z,96996.00
2019-04-23T10:29:00.125Z,96996.00
2019-04-23T10:31:29.464Z,96998.00
2019-04-23T10:33:59.994Z,97020.00
2019-04-23T10:36:31.718Z,97004.00
2019-04-23T10:39:07.427Z,96991.00
2019-04-23T10:41:32.656Z,97003.00
2019-04-23T10:44:09.045Z,97001.00
2019-04-23T10:47:38.617Z,97003.00
2019-04-23T10:50:34.349Z,96987.00
2019-04-23T10:53:10.099Z,96997.00
2019-04-23T10:55:38.537Z,96980.00
2019-04-23T10:58:01.931Z,96977.00
2019-04-23T11:03:14.144Z,96969.00
2019-04-23T11:05:47.504Z,96981.00
2019-04-23T11:08:10.716Z,96980.00
2019-04-23T11:10:42.954Z,96964.00
2019-04-23T11:13:25.881Z,96968.00
2019-04-23T11:16:08.935Z,96958.00
2019-04-23T11:18:34.634Z,96961.00
2019-04-23T11:21:00.952Z,96965.00
2019-04-23T11:23:29.381Z,96962.00
2019-04-23T11:25:58.612Z,96961.00
2019-04-23T11:31:09.049Z,96963.00
2019-04-23T11:33:40.215Z,96972.00
2019-04-23T11:36:35.600Z,96956.00
2019-04-23T11:41:10.892Z,96973.00
2019-04-23T11:46:17.994Z,96978.00
2019-04-23T11:53:48.135Z,96970.00
2019-04-23T11:56:24.096Z,96964.00
2019-04-23T11:58:42.247Z,96969.00
2019-04-23T12:07:32.655Z,96972.00
2019-04-23T12:10:17.131Z,96979.00
2019-04-23T12:12:57.833Z,96973.00
2019-04-23T12:15:18.418Z,96976.00
2019-04-23T12:17:53.885Z,96970.00
2019-04-23T12:20:28.550Z,96981.00
2019-04-23T12:22:57.589Z,96974.00
2019-04-23T12:25:26.731Z,96964.00
2019-04-23T12:27:42.372Z,96975.00
2019-04-23T12:30:25.312Z,96983.00
2019-04-23T12:38:17.499Z,96977.00
2019-04-23T12:40:37.907Z,96975.00
2019-04-23T12:43:14.557Z,96972.00
2019-04-23T12:48:31.409Z,96981.00
2019-04-23T12:53:29.327Z,96976.00
2019-04-23T12:55:43.706Z,96968.00
2019-04-23T13:00:52.847Z,96963.00
2019-04-23T13:03:25.601Z,96957.00
2019-04-23T13:05:47.251Z,96956.00
2019-04-23T13:08:33.309Z,96968.00
2019-04-23T13:10:49.929Z,96965.00
2019-04-23T13:13:31.390Z,96953.00
2019-04-23T13:15:51.945Z,96949.00
2019-04-23T13:18:34.176Z,96945.00
2019-04-23T13:20:58.686Z,96952.00
2019-04-23T13:23:32.532Z,96956.00
2019-04-23T13:25:59.795Z,96956.00
2019-04-23T13:28:38.831Z,96947.00
2019-04-23T13:33:52.495Z,96949.00
2019-04-23T13:36:18.837Z,96944.00
2019-04-23T13:41:17.184Z,96939.00
2019-04-23T13:46:14.147Z,96936.00
2019-04-23T13:48:44.966Z,96926.00
2019-04-23T13:54:01.686Z,96929.00
2019-04-23T13:56:25.262Z,96922.00
2019-04-23T13:58:52.648Z,96941.00
2019-04-23T14:01:25.413Z,96927.00
2019-04-23T14:03:45.215Z,96921.00
2019-04-23T14:06:38.604Z,96922.00
2019-04-23T14:11:26.034Z,96929.00
2019-04-23T14:16:34.078Z,96924.00
2019-04-23T14:19:04.606Z,96926.00
2019-04-23T14:21:30.936Z,96923.00
2019-04-23T14:24:23.550Z,96926.00
2019-04-23T14:26:32.488Z,96927.00
2019-04-23T14:29:14.708Z,96928.00
2019-04-23T14:31:29.725Z,96925.00
2019-04-23T14:36:52.309Z,96923.00
2019-04-23T14:41:26.156Z,96921.00
2019-04-23T14:49:19.123Z,96925.00
2019-04-23T14:54:34.392Z,96921.00
2019-04-23T14:56:59.366Z,96925.00
2019-04-23T14:59:15.091Z,96921.00
2019-04-23T15:02:00.889Z,96925.00
2019-04-23T15:04:26.776Z,96918.00
2019-04-23T15:07:06.031Z,96924.00
2019-04-23T15:09:36.151Z,96926.00
2019-04-23T15:12:16.069Z,96922.00
2019-04-23T15:14:36.141Z,96899.00
2019-04-23T15:16:59.839Z,96916.00
2019-04-23T15:19:49.641Z,96907.00
2019-04-23T15:25:13.545Z,96908.00
2019-04-23T15:27:58.735Z,96911.00
2019-04-23T15:29:31.113Z,96905.00
2019-04-23T15:32:19.972Z,96917.00
2019-04-23T15:34:47.267Z,96916.00
2019-04-23T15:40:04.330Z,96910.00
2019-04-23T15:42:45.233Z,96910.00
2019-04-23T15:47:32.901Z,96913.00
2019-04-23T15:50:10.279Z,96903.00
2019-04-23T15:52:39.488Z,96917.00
2019-04-23T15:57:49.637Z,96911.00
2019-04-23T16:00:03.453Z,96911.00
2019-04-23T16:02:03.817Z,96913.00
2019-04-23T16:04:33.764Z,96903.00
2019-04-23T16:07:04.445Z,96910.00
2019-04-23T16:10:09.225Z,96907.00
2019-04-23T16:12:33.639Z,96913.00
2019-04-23T16:17:37.193Z,96911.00
2019-04-23T16:20:33.322Z,96912.00
2019-04-23T16:22:44.526Z,96904.00
2019-04-23T16:28:00.427Z,96903.00
2019-04-23T16:30:25.767Z,96900.00
2019-04-23T16:33:08.834Z,96905.00
2019-04-23T16:38:44.824Z,96905.00
2019-04-23T16:41:09.903Z,96909.00
2019-04-23T16:43:44.050Z,96908.00
2019-04-23T16:46:16.349Z,96910.00
2019-04-23T16:48:55.467Z,96899.00
2019-04-23T16:53:37.466Z,96884.00
2019-04-23T16:56:18.366Z,96892.00
2019-04-23T17:01:23.013Z,96882.00
2019-04-23T17:04:13.655Z,96896.00
2019-04-23T17:09:15.723Z,96890.00
2019-04-23T17:11:26.952Z,96889.00
2019-04-23T17:14:01.306Z,96895.00
2019-04-23T17:16:30.545Z,96894.00
2019-04-23T17:19:04.765Z,96897.00
2019-04-23T17:21:31.344Z,96897.00
2019-04-23T17:24:08.078Z,96905.00
2019-04-23T17:26:29.206Z,96921.00
2019-04-23T17:29:08.696Z,96914.00
2019-04-23T17:34:11.157Z,96924.00
2019-04-23T17:36:38.180Z,96928.00
2019-04-23T17:39:50.086Z,96923.00
2019-04-23T17:42:12.462Z,96924.00
2019-04-23T17:50:15.473Z,96924.00
2019-04-23T17:52:47.449Z,96936.00
2019-04-23T17:57:37.942Z,96937.00
2019-04-23T18:07:52.450Z,96942.00
2019-04-23T18:10:25.331Z,96931.00
2019-04-23T18:12:57.611Z,96946.00
2019-04-23T18:15:13.062Z,96945.00
2019-04-23T18:17:48.514Z,96959.00
2019-04-23T18:20:58.071Z,96951.00
2019-04-23T18:23:05.778Z,96955.00
2019-04-23T18:28:08.658Z,96954.00
2019-04-23T18:31:11.304Z,96956.00
2019-04-23T18:34:05.448Z,96960.00
2019-04-23T18:36:08.140Z,96964.00
2019-04-23T18:38:46.375Z,96966.00
2019-04-23T18:41:29.072Z,96959.00
2019-04-23T18:43:42.724Z,96975.00
2019-04-23T18:46:24.315Z,96967.00
2019-04-23T18:51:10.441Z,96984.00
2019-04-23T18:53:48.537Z,96985.00
2019-04-23T18:56:19.232Z,96993.00
2019-04-23T19:01:28.088Z,96983.00
2019-04-23T19:04:19.594Z,97012.00
2019-04-23T19:07:32.144Z,97003.00
2019-04-23T19:10:26.362Z,97023.00
2019-04-23T19:15:36.843Z,97007.00
2019-04-23T19:23:08.661Z,97014.00
2019-04-23T19:25:31.811Z,97027.00
2019-04-23T19:28:23.670Z,97019.00
2019-04-23T19:31:01.844Z,97023.00
2019-04-23T19:33:48.854Z,97029.00
2019-04-23T19:36:11.451Z,97023.00
2019-04-23T19:38:35.109Z,97025.00
2019-04-23T19:41:08.637Z,97023.00
2019-04-23T19:43:44.655Z,97033.00
2019-04-23T19:46:45.003Z,97028.00
2019-04-23T19:53:54.947Z,97035.00
2019-04-23T19:56:16.933Z,97029.00
2019-04-23T20:01:23.059Z,97033.00
2019-04-23T20:03:54.532Z,97029.00
2019-04-23T20:12:00.400Z,97035.00
2019-04-23T20:14:32.139Z,97035.00
2019-04-23T20:17:31.897Z,97026.00
2019-04-23T20:19:40.673Z,97040.00
2019-04-23T20:22:06.241Z,97049.00
2019-04-23T20:24:49.440Z,97042.00
2019-04-23T20:30:02.477Z,97062.00
2019-04-23T20:35:11.429Z,97044.00
2019-04-23T20:40:24.310Z,97042.00
2019-04-23T20:42:52.896Z,97049.00
2019-04-23T20:45:20.295Z,97052.00
2019-04-23T20:47:48.438Z,97048.00
2019-04-23T20:50:20.852Z,97049.00
2019-04-23T20:52:46.603Z,97050.00
2019-04-23T20:55:34.702Z,97059.00
2019-04-23T20:58:14.163Z,97052.00
2019-04-23T21:01:14.595Z,97051.00
2019-04-23T21:03:47.267Z,97046.00
2019-04-23T21:06:11.124Z,97058.00
2019-04-23T21:09:02.630Z,97056.00
2019-04-23T21:11:35.499Z,97059.00
2019-04-23T21:14:01.953Z,97049.00
2019-04-23T21:16:13.116Z,97049.00
2019-04-23T21:18:44.275Z,97062.00
2019-04-23T21:21:18.441Z,97056.00
2019-04-23T21:23:51.107Z,97056.00
2019-04-23T21:26:08.186Z,97055.00
2019-04-23T21:28:52.582Z,97057.00
2019-04-23T21:31:40.306Z,97057.00
2019-04-23T21:34:05.770Z,97066.00
2019-04-23T21:36:28.005Z,97061.00
2019-04-23T21:39:06.144Z,97065.00
2019-04-23T21:41:52.692Z,97067.00
2019-04-23T21:44:13.577Z,97060.00
2019-04-23T21:54:13.251Z,97076.00
2019-04-23T21:56:47.020Z,97075.00
2019-04-23T21:59:10.056Z,97073.00
2019-04-23T22:02:07.180Z,97084.00
2019-04-23T22:04:27.288Z,97072.00
2019-04-23T22:09:32.215Z,97077.00
2019-04-23T22:12:03.423Z,97073.00
2019-04-23T22:14:38.168Z,97069.00
2019-04-23T22:19:26.717Z,97074.00
2019-04-23T22:24:24.884Z,97084.00
2019-04-23T22:26:56.609Z,97079.00
2019-04-23T22:29:36.113Z,97088.00
2019-04-23T22:31:58.156Z,97094.00
2019-04-23T22:34:38.955Z,97087.00
2019-04-23T22:37:11.108Z,97088.00
2019-04-23T22:39:41.911Z,97092.00
2019-04-23T22:42:22.406Z,97095.00
2019-04-23T22:44:51.269Z,97094.00
2019-04-23T22:47:28.086Z,97083.00
2019-04-23T22:49:51.382Z,97096.00
2019-04-23T22:54:57.100Z,97095.00
2019-04-23T22:57:09.372Z,97092.00
2019-04-23T23:00:04.510Z,97106.00
2019-04-23T23:02:54.556Z,97092.00
2019-04-23T23:10:20.089Z,97089.00
2019-04-23T23:13:01.894Z,97083.00
2019-04-23T23:15:24.606Z,97089.00
2019-04-23T23:18:02.985Z,97090.00
2019-04-23T23:20:20.851Z,97091.00
2019-04-23T23:22:57.107Z,97090.00
2019-04-23T23:25:30.828Z,97085.00
2019-04-23T23:28:02.522Z,97081.00
2019-04-23T23:32:55.664Z,97087.00
2019-04-23T23:35:29.551Z,97085.00
2019-04-23T23:37:59.386Z,97086.00
2019-04-23T23:40:25.587Z,97100.00
2019-04-23T23:45:25.369Z,97090.00
2019-04-23T23:47:59.294Z,97090.00
2019-04-23T23:50:37.535Z,97095.00
2019-04-23T23:53:05.797Z,97103.00
2019-04-23T23:55:33.568Z,97101.00
